Connexion

5Km

5 KM LA JUDOCIENNE du 15/08/18 (Réelle 5,7)
Rang Dossard Nom Prénom Temps Cat Rang Cat Ecart Ecart Cat Club Vitesse Km/h Temps au Km
1 147 RIMBAULT STEVENS 00:20:08 SEM 1 00:00:00 00:00:00 TOA 16,987 03:32
2 190 LELIEVRE MICHEL 00:20:36 V1M 1 00:00:28 00:00:00 TRIATHLON CLUB DE MONTREUIL 16,602 03:37
3 896 DELATTRE AMAURY 00:21:02 SEM 2 00:00:54 00:00:54 - 16,260 03:41
4 149 TERRASSON FRANCOIS 00:21:03 SEM 3 00:00:55 00:00:55 TOA 16,247 03:42
5 195 CALOIN MATHIEU 00:21:11 SEM 4 00:01:03 00:01:03 TOUQUET OPALE ATHLETISME 16,145 03:43
6 154 BALAZEK VALENTIN 00:21:13 SEM 5 00:01:05 00:01:05 RC ARRAS 16,119 03:43
7 538 GOLLIOT YANNICK 00:21:41 SEM 6 00:01:33 00:01:33 ARTOIS ATHLETISME 15,772 03:48
8 537 CAUHET ROMAIN 00:21:41 ESM 1 00:01:33 00:00:00 ARTOIS ATHLETISME 15,772 03:48
9 536 LHEUREUX DANIEL 00:21:54 V1M 2 00:01:46 00:01:18 SPORT EVASION DES 2 CAPS 15,616 03:51
10 535 PRAITE ALAIN 00:22:04 SEM 7 00:01:56 00:01:56 TOUQUET OPALE ATHLETISME 15,498 03:52
11 181 VAMBRE LAURENT 00:22:19 V1M 3 00:02:11 00:01:43 TOA 15,325 03:55
12 518 SAILLY NICOLAS 00:22:25 SEM 8 00:02:17 00:02:17 - 15,257 03:56
13 506 DAMBREVILLE BENJAMIN 00:22:49 ESM 2 00:02:41 00:01:08 ATHLETISME CLUB OUTREAU 14,989 04:00
14 533 WATEL DOMINIQUE 00:23:21 V2M 1 00:03:13 00:00:00 - 14,647 04:06
15 524 GRARE FLORIAN 00:23:33 SEM 9 00:03:25 00:03:25 EMA 62 14,522 04:08
16 121 BATICLE LEANDRE 00:23:34 MIM 1 00:03:26 00:00:00 - 14,512 04:08
17 196 BOUTIN JULIEN 00:23:42 SEM 10 00:03:34 00:03:34 RC ARRAS 14,430 04:09
18 178 DUVIEUXBOURG NICOLAS 00:23:53 V1M 4 00:03:45 00:03:17 PATRIOTE CROSS GUINES 14,320 04:11
19 133 TISSERAND THIBAUT 00:23:55 SEM 11 00:03:47 00:03:47 - 14,300 04:12
20 507 ROUSSEL MARTIN 00:24:09 MIM 2 00:04:01 00:00:35 - 14,161 04:14
21 130 PIERRU JULIEN 00:24:23 SEM 12 00:04:15 00:04:15 JOGGING CLUB LICQUOIS 14,026 04:17
22 192 FAVIER FREDERIC 00:24:25 V1M 5 00:04:17 00:03:49 - 14,007 04:17
23 504 PODVIN CLAUDINE 00:24:29 V1F 1 00:04:21 00:00:00 TOUQUET OPALE ATHLETISME 13,969 04:18
24 129 GACOIN JOEL 00:24:33 V3M 1 00:04:25 00:00:00 CHU ROUEN 13,931 04:18
25 174 THERET MICKAEL 00:24:37 V1M 6 00:04:29 00:04:01 - 13,893 04:19
26 189 LELIEVRE CLEA 00:24:41 CAF 1 00:04:33 00:00:00 TOUQUET OPALE ATHLETISME 13,856 04:20
27 534 PROVIN MICKAEL 00:24:48 V1M 7 00:04:40 00:04:12 ETAPLES TRIATHLON 13,790 04:21
28 519 LANDRY ARNAUD 00:24:57 V2M 2 00:04:49 00:01:36 E.S. ARQUES 13,707 04:23
29 155 PLOUVIER ALAIN 00:25:07 V2M 3 00:04:59 00:01:46 RC ARRAS 13,616 04:24
30 898 REIGNIER VINCENT 00:25:38 V1M 8 00:05:30 00:05:02 - 13,342 04:30
31 169 BAUDELET NICOLAS 00:25:44 SEM 13 00:05:36 00:05:36 LE DRAPEAU LE PORTEL 13,290 04:31
32 162 QUEVAL DAVID 00:25:44 V1M 9 00:05:36 00:05:08 STADE OLYMPIC CALAIS ATHLE 13,290 04:31
33 509 VILLETTE FRANCIS 00:26:27 V2M 4 00:06:19 00:03:06 - 12,930 04:38
34 546 MACQUET LOUP 00:26:49 MIM 3 00:06:41 00:03:15 - 12,753 04:42
35 182 VAMBRE MARTIN 00:26:55 MIM 4 00:06:47 00:03:21 TOA 12,706 04:43
36 197 EVRARD GAEL 00:27:10 SEM 14 00:07:02 00:07:02 - 12,589 04:46
37 542 DEWEVER JESSY 00:27:12 CAM 1 00:07:04 00:00:00 - 12,574 04:46
38 156 DELENCLOS LINDA 00:27:17 V1F 2 00:07:09 00:02:48 RC ARRAS 12,535 04:47
39 199 REGNAUT THOMAS 00:27:24 ESM 3 00:07:16 00:05:43 R.A.D.T. 12,482 04:48
40 541 DEWECER MEHDI 00:28:06 V1M 10 00:07:58 00:07:30 - 12,171 04:56
41 150 DOSSCHE PATRICK 00:28:07 V3M 2 00:07:59 00:03:34 - 12,164 04:56
42 138 CUVILLIER JOEL 00:28:15 V2M 5 00:08:07 00:04:54 - 12,106 04:57
43 134 TISSERAND XAVIER 00:28:18 V2M 6 00:08:10 00:04:57 - 12,085 04:58
44 168 BAHEU NICOLAS 00:28:25 JUM 1 00:08:17 00:00:00 LE DRAPEAU LE PORTEL 12,035 04:59
45 164 DESTAILLEUR HUGO 00:28:39 MIM 5 00:08:31 00:05:05 - 11,937 05:02
46 161 QUEVAL STEPHANIE 00:28:47 V1F 3 00:08:39 00:04:18 STADE OLYMPIC CALAIS ATHLE 11,882 05:03
47 900 BIERNACKI CELINE 00:29:03 SEF 1 00:08:55 00:00:00 - 11,773 05:06
48 140 TEETEN OLIVIER 00:29:05 V1M 11 00:08:57 00:08:29 - 11,759 05:06
49 194 VELANOVSKI BAPTISTE 00:29:13 MIM 6 00:09:05 00:05:39 TRIATHLON CLUB DE MONTREUIL 11,706 05:08
50 186 DETEUF FABIENNE 00:29:17 V2F 1 00:09:09 00:00:00 - 11,679 05:08
51 505 VILLETTE FREDERIC 00:29:22 V1M 12 00:09:14 00:08:46 BLANC NEZ TRIATHLON 11,646 05:09
52 180 BARBIER CORINNE 00:29:29 V2F 2 00:09:21 00:00:12 - 11,600 05:10
53 165 DESTAILLEUR LILOU 00:29:32 BEF 1 00:09:24 00:00:00 - 11,580 05:11
54 511 BOUREZ ANAELLE 00:29:45 CAF 2 00:09:37 00:05:04 - 11,496 05:13
55 503 FAILLE GUY 00:30:00 V2M 7 00:09:52 00:06:39 - 11,400 05:16
56 145 VERDICKT ISABELLE 00:30:38 V1F 4 00:10:30 00:06:09 RIWA 11,164 05:22
57 127 VITTAZ SERGE 00:30:42 V2M 8 00:10:34 00:07:21 ATHLETIC SAUTRIAUT VERBERIE 11,140 05:23
58 151 DUQUENOY LAURINE 00:30:43 MIF 1 00:10:35 00:00:00 PATRIOTE CROSS GUINES 11,134 05:23
59 529 ROBERT THEO 00:31:23 CAM 2 00:11:15 00:04:11 EMA 62 10,898 05:30
60 166 MONTOYA BASTIEN 00:31:34 CAM 3 00:11:26 00:04:22 ASEC 80 10,834 05:32
61 500 MATHUREL DELPHINE 00:31:37 SEF 2 00:11:29 00:02:34 BOULOGNE ATHLETIQUE CLUB 10,817 05:33
62 170 CAILLEUX ANTOINE 00:31:40 JUM 2 00:11:32 00:03:15 - 10,800 05:33
63 141 TEETEN DAMIEN 00:31:42 MIM 7 00:11:34 00:08:08 - 10,789 05:34
64 159 DAVID EDITH 00:31:46 V2F 3 00:11:38 00:02:29 - 10,766 05:34
65 125 MAZINGUE DAVID 00:31:54 V1M 13 00:11:46 00:11:18 PICQUIGNY RUNNING CLUB 10,721 05:36
66 530 BOURGEOIS MANNON 00:31:57 CAF 3 00:11:49 00:07:16 EMA 62 10,704 05:36
67 153 VENDAMME CAROLE 00:32:03 V1F 5 00:11:55 00:07:34 - 10,671 05:37
68 525 POTEZ JUSTINE 00:32:15 ESF 1 00:12:07 00:00:00 EMA 62 10,605 05:39
69 123 ROBERT CLAIRE 00:32:18 ESF 2 00:12:10 00:00:03 - 10,588 05:40
70 124 LEFEBVRE JOEL 00:32:19 V3M 3 00:12:11 00:07:46 - 10,583 05:40
71 899 REGNIER AXELLE 00:32:26 SEF 3 00:12:18 00:03:23 - 10,545 05:41
72 508 DAMBREVILLE JEAN-LUC 00:32:29 V2M 9 00:12:21 00:09:08 - 10,528 05:42
73 516 OGNIER GUY 00:32:47 V3M 4 00:12:39 00:08:14 - 10,432 05:45
74 526 PECRIAUX ALYZE 00:32:48 SEF 4 00:12:40 00:03:45 EMA 62 10,427 05:45
75 157 HIEZ MELANIE 00:32:55 SEF 5 00:12:47 00:03:52 RCA CANICROSS 10,390 05:46
76 198 DEMAILLY DENIS 00:33:08 V2M 10 00:13:00 00:09:47 - 10,322 05:49
77 152 REGNAUT ERICK 00:33:10 V2M 11 00:13:02 00:09:49 RADT 10,312 05:49
78 897 VERGOIN MATHIEU 00:33:45 V1M 14 00:13:37 00:13:09 - 10,133 05:55
79 160 QUEVAL LOLA 00:33:54 MIF 2 00:13:46 00:03:11 STADE OLYMPIC CALAIS ATHLE 10,088 05:57
80 172 SPIGOLON ADRIANO 00:34:12 JUM 3 00:14:04 00:05:47 ASSO SPORTIVE ESTREES LES CRECY 10,000 06:00
81 173 LAMOUR CAMILLE 00:34:13 SEF 6 00:14:05 00:05:10 - 9,995 06:00
82 193 MORTIER EUGENIE 00:34:57 MIF 3 00:14:49 00:04:14 - 9,785 06:08
83 163 DESTAILLEUR FLORENCE 00:34:58 SEF 7 00:14:50 00:05:55 - 9,781 06:08
84 515 NARDIN GUILLAUME 00:35:07 MIM 8 00:14:59 00:11:33 - 9,739 06:10
85 544 BODART MARIE 00:35:15 V1F 6 00:15:07 00:10:46 - 9,702 06:11
86 148 FAUQUEMBERGUE MARIE 00:35:17 SEF 8 00:15:09 00:06:14 TOA 9,693 06:11
87 531 LE ROLLAND VICKY 00:35:18 V1F 7 00:15:10 00:10:49 - 9,688 06:12
88 532 LE ROLLAND ERIC 00:35:18 V1M 15 00:15:10 00:14:42 - 9,688 06:12
89 171 CAILLEUX PIERRE 00:35:29 V1M 16 00:15:21 00:14:53 - 9,638 06:14
90 187 GONZALES JANETTE 00:36:08 V1F 8 00:16:00 00:11:39 - 9,465 06:20
91 539 SAILLY VALERIE 00:36:10 V1F 9 00:16:02 00:11:41 - 9,456 06:21
92 183 SEGUIN DOMINIQUE 00:36:17 V2F 4 00:16:09 00:07:00 AC VEULAIS 9,426 06:22
93 158 DUCOULOMBIER ARNAULD 00:36:30 V3M 5 00:16:22 00:11:57 - 9,370 06:24
94 540 MOYNIEZ CHRISTELLE 00:36:46 SEF 9 00:16:38 00:07:43 - 9,302 06:27
95 521 BOUDEAU CHRISTOPHE 00:36:49 V2M 12 00:16:41 00:13:28 - 9,289 06:28
96 517 DUCLOY NICOLAS 00:37:16 MIM 9 00:17:08 00:13:42 - 9,177 06:32
97 188 SENEZ GERARD 00:37:23 V3M 6 00:17:15 00:12:50 - 9,148 06:34
98 176 DEBUICHE ANNE 00:37:25 SEF 10 00:17:17 00:08:22 - 9,140 06:34
99 175 MARQUILLY SEVERINE 00:37:36 V1F 10 00:17:28 00:13:07 - 9,096 06:36
100 177 DEBUICHE J MICHEL 00:37:36 V1M 17 00:17:28 00:17:00 - 9,096 06:36
101 545 PICARD CHRISTINA 00:38:26 V1F 11 00:18:18 00:13:57 - 8,899 06:45
102 543 BOCAERT CAMILLE 00:38:51 MIF 4 00:18:43 00:08:08 TRIATHLON CLUB DE MONTREUIL 8,803 06:49
103 132 HENNION ERIC 00:39:06 V3M 7 00:18:58 00:14:33 - 8,747 06:52
104 520 BOUDEAU CLARA 00:39:56 MIF 5 00:19:48 00:09:13 - 8,564 07:00
105 510 DEVAUX LAURENCE 00:40:08 V1F 12 00:20:00 00:15:39 - 8,522 07:02
106 179 FLIPO ANNE 00:40:21 V2F 5 00:20:13 00:11:04 - 8,476 07:05
107 514 JACQMART MARIE 00:40:32 SEF 11 00:20:24 00:11:29 - 8,438 07:07
108 513 JACQMART JEAN 00:40:43 V3M 8 00:20:35 00:16:10 - 8,400 07:09
109 128 DELPLANQUE SOPHIE 00:40:47 V1F 13 00:20:39 00:16:18 CAC CALOTERIE 8,386 07:09
110 527 OFFROY ANTOINE 00:40:52 ESM 4 00:20:44 00:19:11 EMA 62 8,369 07:10
111 528 DELVOYE FLORENT 00:40:55 SEM 15 00:20:47 00:20:47 EMA 62 8,358 07:11
112 502 DUCATEZ JENNIFER 00:40:57 SEF 12 00:20:49 00:11:54 - 8,352 07:11
113 139 MOREL LYDIE 00:41:01 V2F 6 00:20:53 00:11:44 - 8,338 07:12
114 142 LEPRETRE SOPHIE 00:41:05 V1F 14 00:20:57 00:16:36 - 8,325 07:12
115 522 BOUDEAU SOPHIE 00:41:16 V1F 15 00:21:08 00:16:47 - 8,288 07:14
116 185 FLIPO CAROLINE 00:41:31 SEF 13 00:21:23 00:12:28 - 8,238 07:17
117 512 JACQMART CAROLINE 00:41:39 V2F 7 00:21:31 00:12:22 - 8,211 07:18
118 131 MOIGNON LAURENCE 00:42:04 V1F 16 00:21:56 00:17:35 - 8,130 07:23
119 501 GODET FRANCINE 00:42:18 V3F 1 00:22:10 00:00:00 - 8,085 07:25
120 184 LESOT VALERIE 00:44:11 V1F 17 00:24:03 00:19:42 - 7,740 07:45
121 135 SMIDLIK LEONE 00:46:15 V3F 2 00:26:07 00:03:57 JOGGING CLUB HARNESIEN 7,395 08:07
122 523 VANHAZEBROUCK CAMILLE 00:46:49 SEF 14 00:26:41 00:17:46 - 7,305 08:13
123 144 SPINNOY ANNE MARIE 00:52:26 V3F 3 00:32:18 00:10:08 RIWA 6,523 09:12
124 146 BERO ROSELINE 00:56:22 V4F 1 00:36:14 00:00:00 RIWA 6,067 09:53
125 143 RADERMECKER JOCELYNE 00:56:22 V3F 4 00:36:14 00:14:04 RIWA 6,067 09:53